sensor_id;sensor_type;location;lat;lon;timestamp;temperature;humidity
29849;DHT22;16728;50.832;5.590;2022-09-02T00:01:03;20.10;91.70
29849;DHT22;16728;50.832;5.590;2022-09-02T00:04:18;20.20;91.60
29849;DHT22;16728;50.832;5.590;2022-09-02T00:07:20;20.10;91.50
29849;DHT22;16728;50.832;5.590;2022-09-02T00:10:21;20.00;91.70
29849;DHT22;16728;50.832;5.590;2022-09-02T00:13:23;19.90;91.80
29849;DHT22;16728;50.832;5.590;2022-09-02T00:16:25;19.90;91.80
29849;DHT22;16728;50.832;5.590;2022-09-02T00:19:29;19.90;91.80
29849;DHT22;16728;50.832;5.590;2022-09-02T00:22:31;19.80;91.90
29849;DHT22;16728;50.832;5.590;2022-09-02T00:25:34;19.90;92.00
29849;DHT22;16728;50.832;5.590;2022-09-02T00:28:36;19.90;92.00
29849;DHT22;16728;50.832;5.590;2022-09-02T00:31:39;19.80;92.10
29849;DHT22;16728;50.832;5.590;2022-09-02T00:34:41;19.80;92.10
29849;DHT22;16728;50.832;5.590;2022-09-02T00:37:43;19.90;92.20
29849;DHT22;16728;50.832;5.590;2022-09-02T00:40:48;20.00;92.20
29849;DHT22;16728;50.832;5.590;2022-09-02T00:43:58;20.00;92.20
29849;DHT22;16728;50.832;5.590;2022-09-02T00:47:00;19.90;92.20
29849;DHT22;16728;50.832;5.590;2022-09-02T00:50:07;19.90;92.30
29849;DHT22;16728;50.832;5.590;2022-09-02T00:53:11;19.80;92.40
29849;DHT22;16728;50.832;5.590;2022-09-02T00:56:20;19.90;92.40
29849;DHT22;16728;50.832;5.590;2022-09-02T00:59:38;19.90;92.60
29849;DHT22;16728;50.832;5.590;2022-09-02T01:02:47;19.90;92.60
29849;DHT22;16728;50.832;5.590;2022-09-02T01:05:51;20.00;92.80
29849;DHT22;16728;50.832;5.590;2022-09-02T01:08:59;20.00;92.80
29849;DHT22;16728;50.832;5.590;2022-09-02T01:12:03;19.90;92.90
29849;DHT22;16728;50.832;5.590;2022-09-02T01:15:06;19.90;92.80
29849;DHT22;16728;50.832;5.590;2022-09-02T01:18:13;19.90;92.90
29849;DHT22;16728;50.832;5.590;2022-09-02T01:21:15;20.00;93.00
29849;DHT22;16728;50.832;5.590;2022-09-02T01:24:19;20.00;92.80
29849;DHT22;16728;50.832;5.590;2022-09-02T01:27:22;20.00;92.80
29849;DHT22;16728;50.832;5.590;2022-09-02T01:30:25;19.80;92.90
29849;DHT22;16728;50.832;5.590;2022-09-02T01:33:27;19.90;93.10
29849;DHT22;16728;50.832;5.590;2022-09-02T01:36:36;20.00;93.20
29849;DHT22;16728;50.832;5.590;2022-09-02T01:39:39;20.00;93.40
29849;DHT22;16728;50.832;5.590;2022-09-02T01:42:42;20.00;93.50
29849;DHT22;16728;50.832;5.590;2022-09-02T01:45:45;20.00;93.50
29849;DHT22;16728;50.832;5.590;2022-09-02T01:48:48;20.00;93.60
29849;DHT22;16728;50.832;5.590;2022-09-02T01:51:54;20.00;93.80
29849;DHT22;16728;50.832;5.590;2022-09-02T01:54:57;20.00;93.80
29849;DHT22;16728;50.832;5.590;2022-09-02T01:58:00;20.00;93.80
29849;DHT22;16728;50.832;5.590;2022-09-02T02:01:02;19.90;93.90
29849;DHT22;16728;50.832;5.590;2022-09-02T02:04:04;19.90;94.00
29849;DHT22;16728;50.832;5.590;2022-09-02T02:07:16;19.90;94.10
29849;DHT22;16728;50.832;5.590;2022-09-02T02:10:20;19.90;94.00
29849;DHT22;16728;50.832;5.590;2022-09-02T02:13:22;19.90;93.80
29849;DHT22;16728;50.832;5.590;2022-09-02T02:16:24;20.00;93.60
29849;DHT22;16728;50.832;5.590;2022-09-02T02:19:27;20.00;93.40
29849;DHT22;16728;50.832;5.590;2022-09-02T02:22:28;19.90;93.40
29849;DHT22;16728;50.832;5.590;2022-09-02T02:25:32;20.00;93.30
29849;DHT22;16728;50.832;5.590;2022-09-02T02:28:34;20.10;93.30
29849;DHT22;16728;50.832;5.590;2022-09-02T02:31:36;20.10;93.40
29849;DHT22;16728;50.832;5.590;2022-09-02T02:34:38;20.00;93.40
29849;DHT22;16728;50.832;5.590;2022-09-02T02:37:40;20.00;93.20
29849;DHT22;16728;50.832;5.590;2022-09-02T02:40:42;20.10;93.10
29849;DHT22;16728;50.832;5.590;2022-09-02T02:43:45;20.00;93.10
29849;DHT22;16728;50.832;5.590;2022-09-02T02:46:48;20.00;93.20
29849;DHT22;16728;50.832;5.590;2022-09-02T02:49:50;20.00;93.30
29849;DHT22;16728;50.832;5.590;2022-09-02T02:52:52;20.00;93.30
29849;DHT22;16728;50.832;5.590;2022-09-02T02:55:56;20.00;93.30
29849;DHT22;16728;50.832;5.590;2022-09-02T02:58:58;20.00;93.30
29849;DHT22;16728;50.832;5.590;2022-09-02T03:02:05;20.00;93.20
29849;DHT22;16728;50.832;5.590;2022-09-02T03:05:08;20.00;93.20
29849;DHT22;16728;50.832;5.590;2022-09-02T03:08:10;20.00;93.20
29849;DHT22;16728;50.832;5.590;2022-09-02T03:11:12;20.00;93.20
29849;DHT22;16728;50.832;5.590;2022-09-02T03:14:14;20.00;93.10
29849;DHT22;16728;50.832;5.590;2022-09-02T03:17:18;20.00;93.10
29849;DHT22;16728;50.832;5.590;2022-09-02T03:20:21;20.00;93.00
29849;DHT22;16728;50.832;5.590;2022-09-02T03:23:23;20.00;92.90
29849;DHT22;16728;50.832;5.590;2022-09-02T03:26:25;20.00;92.80
29849;DHT22;16728;50.832;5.590;2022-09-02T03:29:26;20.10;93.00
29849;DHT22;16728;50.832;5.590;2022-09-02T03:32:28;20.10;93.10
29849;DHT22;16728;50.832;5.590;2022-09-02T03:35:32;20.10;93.10
29849;DHT22;16728;50.832;5.590;2022-09-02T03:38:35;20.00;93.20
29849;DHT22;16728;50.832;5.590;2022-09-02T03:41:37;20.00;93.30
29849;DHT22;16728;50.832;5.590;2022-09-02T03:44:41;20.10;93.40
29849;DHT22;16728;50.832;5.590;2022-09-02T03:47:44;20.00;93.40
29849;DHT22;16728;50.832;5.590;2022-09-02T03:50:51;20.00;93.60
29849;DHT22;16728;50.832;5.590;2022-09-02T03:53:53;20.00;93.60
29849;DHT22;16728;50.832;5.590;2022-09-02T03:56:55;19.90;93.60
29849;DHT22;16728;50.832;5.590;2022-09-02T03:59:57;19.80;93.60
29849;DHT22;16728;50.832;5.590;2022-09-02T04:03:03;19.90;93.60
29849;DHT22;16728;50.832;5.590;2022-09-02T04:06:08;19.90;93.60
29849;DHT22;16728;50.832;5.590;2022-09-02T04:09:13;19.90;93.60
29849;DHT22;16728;50.832;5.590;2022-09-02T04:12:15;19.80;93.70
29849;DHT22;16728;50.832;5.590;2022-09-02T04:15:18;19.90;93.90
29849;DHT22;16728;50.832;5.590;2022-09-02T04:18:20;19.90;93.80
29849;DHT22;16728;50.832;5.590;2022-09-02T04:21:23;19.90;93.70
29849;DHT22;16728;50.832;5.590;2022-09-02T04:24:25;19.90;93.70
29849;DHT22;16728;50.832;5.590;2022-09-02T04:27:27;19.90;93.70
29849;DHT22;16728;50.832;5.590;2022-09-02T04:30:29;19.90;93.70
29849;DHT22;16728;50.832;5.590;2022-09-02T04:33:31;19.90;93.60
29849;DHT22;16728;50.832;5.590;2022-09-02T04:36:33;19.90;93.60
29849;DHT22;16728;50.832;5.590;2022-09-02T04:39:35;19.90;93.80
29849;DHT22;16728;50.832;5.590;2022-09-02T04:42:37;19.80;93.90
29849;DHT22;16728;50.832;5.590;2022-09-02T04:45:41;19.70;93.90
29849;DHT22;16728;50.832;5.590;2022-09-02T04:48:44;19.60;94.20
29849;DHT22;16728;50.832;5.590;2022-09-02T04:51:46;19.60;94.20
29849;DHT22;16728;50.832;5.590;2022-09-02T04:54:48;19.70;94.00
29849;DHT22;16728;50.832;5.590;2022-09-02T04:57:50;19.70;93.90
29849;DHT22;16728;50.832;5.590;2022-09-02T05:00:51;19.70;94.10
29849;DHT22;16728;50.832;5.590;2022-09-02T05:03:54;19.70;94.30
29849;DHT22;16728;50.832;5.590;2022-09-02T05:06:56;19.70;94.50
29849;DHT22;16728;50.832;5.590;2022-09-02T05:10:03;19.70;94.60
29849;DHT22;16728;50.832;5.590;2022-09-02T05:13:05;19.60;94.60
29849;DHT22;16728;50.832;5.590;2022-09-02T05:16:07;19.60;94.80
29849;DHT22;16728;50.832;5.590;2022-09-02T05:19:09;19.60;94.70
29849;DHT22;16728;50.832;5.590;2022-09-02T05:22:14;19.70;94.70
29849;DHT22;16728;50.832;5.590;2022-09-02T05:25:16;19.60;94.60
29849;DHT22;16728;50.832;5.590;2022-09-02T05:28:18;19.60;94.50
29849;DHT22;16728;50.832;5.590;2022-09-02T05:31:20;19.60;94.50
29849;DHT22;16728;50.832;5.590;2022-09-02T05:34:22;19.60;94.50
29849;DHT22;16728;50.832;5.590;2022-09-02T05:37:24;19.60;94.50
29849;DHT22;16728;50.832;5.590;2022-09-02T05:40:27;19.60;94.50
29849;DHT22;16728;50.832;5.590;2022-09-02T05:43:29;19.60;94.80
29849;DHT22;16728;50.832;5.590;2022-09-02T05:46:32;19.60;94.80
29849;DHT22;16728;50.832;5.590;2022-09-02T05:49:34;19.70;95.30
29849;DHT22;16728;50.832;5.590;2022-09-02T05:52:35;19.60;95.20
29849;DHT22;16728;50.832;5.590;2022-09-02T05:55:37;19.60;95.30
29849;DHT22;16728;50.832;5.590;2022-09-02T05:58:39;19.70;95.40
29849;DHT22;16728;50.832;5.590;2022-09-02T06:01:42;19.60;95.40
29849;DHT22;16728;50.832;5.590;2022-09-02T06:04:50;19.70;95.30
29849;DHT22;16728;50.832;5.590;2022-09-02T06:07:54;19.60;95.20
29849;DHT22;16728;50.832;5.590;2022-09-02T06:10:56;19.70;95.30
29849;DHT22;16728;50.832;5.590;2022-09-02T06:13:57;19.70;95.60
29849;DHT22;16728;50.832;5.590;2022-09-02T06:17:00;19.70;95.40
29849;DHT22;16728;50.832;5.590;2022-09-02T06:20:03;19.60;95.70
29849;DHT22;16728;50.832;5.590;2022-09-02T06:23:05;19.60;95.50
29849;DHT22;16728;50.832;5.590;2022-09-02T06:26:09;19.60;95.50
29849;DHT22;16728;50.832;5.590;2022-09-02T06:29:12;19.70;95.50
29849;DHT22;16728;50.832;5.590;2022-09-02T06:32:13;19.80;95.30
29849;DHT22;16728;50.832;5.590;2022-09-02T06:35:16;19.70;95.30
29849;DHT22;16728;50.832;5.590;2022-09-02T06:38:18;19.80;95.40
29849;DHT22;16728;50.832;5.590;2022-09-02T06:41:24;19.70;95.40
29849;DHT22;16728;50.832;5.590;2022-09-02T06:44:28;19.70;95.50
29849;DHT22;16728;50.832;5.590;2022-09-02T06:47:33;19.70;95.70
29849;DHT22;16728;50.832;5.590;2022-09-02T06:50:44;19.70;95.60
29849;DHT22;16728;50.832;5.590;2022-09-02T06:53:46;19.80;95.60
29849;DHT22;16728;50.832;5.590;2022-09-02T06:56:49;19.90;95.70
29849;DHT22;16728;50.832;5.590;2022-09-02T06:59:51;19.90;95.60
29849;DHT22;16728;50.832;5.590;2022-09-02T07:03:09;20.00;95.50
29849;DHT22;16728;50.832;5.590;2022-09-02T07:06:36;20.00;95.30
29849;DHT22;16728;50.832;5.590;2022-09-02T07:09:39;20.10;95.40
29849;DHT22;16728;50.832;5.590;2022-09-02T07:12:40;20.20;95.50
29849;DHT22;16728;50.832;5.590;2022-09-02T07:15:45;20.20;95.50
29849;DHT22;16728;50.832;5.590;2022-09-02T07:18:47;20.30;95.10
29849;DHT22;16728;50.832;5.590;2022-09-02T07:21:48;20.40;94.70
29849;DHT22;16728;50.832;5.590;2022-09-02T07:24:50;20.50;94.60
29849;DHT22;16728;50.832;5.590;2022-09-02T07:27:53;20.60;94.30
29849;DHT22;16728;50.832;5.590;2022-09-02T07:30:55;20.70;94.20
29849;DHT22;16728;50.832;5.590;2022-09-02T07:34:00;20.80;94.20
29849;DHT22;16728;50.832;5.590;2022-09-02T07:37:03;20.90;94.00
29849;DHT22;16728;50.832;5.590;2022-09-02T07:40:11;21.00;93.70
29849;DHT22;16728;50.832;5.590;2022-09-02T07:43:14;21.10;93.50
29849;DHT22;16728;50.832;5.590;2022-09-02T07:46:17;21.20;93.40
29849;DHT22;16728;50.832;5.590;2022-09-02T07:49:19;21.30;93.40
29849;DHT22;16728;50.832;5.590;2022-09-02T07:52:24;21.40;93.00
29849;DHT22;16728;50.832;5.590;2022-09-02T07:55:26;21.50;92.90
29849;DHT22;16728;50.832;5.590;2022-09-02T07:58:30;21.60;92.60
29849;DHT22;16728;50.832;5.590;2022-09-02T08:01:33;21.70;92.30
29849;DHT22;16728;50.832;5.590;2022-09-02T08:04:35;21.80;92.20
29849;DHT22;16728;50.832;5.590;2022-09-02T08:07:37;21.90;92.00
29849;DHT22;16728;50.832;5.590;2022-09-02T08:10:40;22.00;91.90
29849;DHT22;16728;50.832;5.590;2022-09-02T08:13:42;22.10;91.90
29849;DHT22;16728;50.832;5.590;2022-09-02T08:16:46;22.20;91.80
29849;DHT22;16728;50.832;5.590;2022-09-02T08:19:48;22.30;91.90
29849;DHT22;16728;50.832;5.590;2022-09-02T08:22:50;22.30;91.70
29849;DHT22;16728;50.832;5.590;2022-09-02T08:26:12;22.40;91.50
29849;DHT22;16728;50.832;5.590;2022-09-02T08:29:14;22.40;91.50
29849;DHT22;16728;50.832;5.590;2022-09-02T08:32:16;22.50;91.40
29849;DHT22;16728;50.832;5.590;2022-09-02T08:35:18;22.60;91.40
29849;DHT22;16728;50.832;5.590;2022-09-02T08:38:21;22.70;91.10
29849;DHT22;16728;50.832;5.590;2022-09-02T08:41:26;22.80;91.00
29849;DHT22;16728;50.832;5.590;2022-09-02T08:44:35;23.00;90.60
29849;DHT22;16728;50.832;5.590;2022-09-02T08:47:40;23.20;89.70
29849;DHT22;16728;50.832;5.590;2022-09-02T08:50:44;23.30;88.80
29849;DHT22;16728;50.832;5.590;2022-09-02T08:53:55;23.50;88.60
29849;DHT22;16728;50.832;5.590;2022-09-02T08:57:02;23.60;87.00
29849;DHT22;16728;50.832;5.590;2022-09-02T09:00:06;23.70;85.50
29849;DHT22;16728;50.832;5.590;2022-09-02T09:03:32;23.80;85.20
29849;DHT22;16728;50.832;5.590;2022-09-02T09:10:18;24.10;82.40
29849;DHT22;16728;50.832;5.590;2022-09-02T09:13:49;24.20;82.10
29849;DHT22;16728;50.832;5.590;2022-09-02T09:17:16;24.40;79.60
29849;DHT22;16728;50.832;5.590;2022-09-02T09:20:28;24.50;78.30
29849;DHT22;16728;50.832;5.590;2022-09-02T09:23:33;24.50;76.70
29849;DHT22;16728;50.832;5.590;2022-09-02T09:26:38;24.60;76.00
29849;DHT22;16728;50.832;5.590;2022-09-02T09:29:41;24.70;75.10
29849;DHT22;16728;50.832;5.590;2022-09-02T09:32:57;24.80;74.30
29849;DHT22;16728;50.832;5.590;2022-09-02T09:36:04;24.90;74.00
29849;DHT22;16728;50.832;5.590;2022-09-02T09:39:26;24.90;72.90
29849;DHT22;16728;50.832;5.590;2022-09-02T09:42:34;24.80;72.20
29849;DHT22;16728;50.832;5.590;2022-09-02T09:45:42;24.70;71.20
29849;DHT22;16728;50.832;5.590;2022-09-02T09:48:48;24.70;72.00
29849;DHT22;16728;50.832;5.590;2022-09-02T09:51:53;24.60;72.40
29849;DHT22;16728;50.832;5.590;2022-09-02T09:55:18;24.70;70.90
29849;DHT22;16728;50.832;5.590;2022-09-02T10:01:49;24.80;70.20
29849;DHT22;16728;50.832;5.590;2022-09-02T10:04:54;24.90;70.30
29849;DHT22;16728;50.832;5.590;2022-09-02T10:08:03;24.90;69.50
29849;DHT22;16728;50.832;5.590;2022-09-02T10:11:22;25.00;69.20
29849;DHT22;16728;50.832;5.590;2022-09-02T10:14:30;25.10;69.40
29849;DHT22;16728;50.832;5.590;2022-09-02T10:17:45;25.20;69.00
29849;DHT22;16728;50.832;5.590;2022-09-02T10:37:23;24.80;69.20
29849;DHT22;16728;50.832;5.590;2022-09-02T10:43:53;24.80;69.30
29849;DHT22;16728;50.832;5.590;2022-09-02T10:47:01;24.80;69.60
29849;DHT22;16728;50.832;5.590;2022-09-02T10:50:22;24.80;69.90
29849;DHT22;16728;50.832;5.590;2022-09-02T10:53:37;24.80;69.60
29849;DHT22;16728;50.832;5.590;2022-09-02T10:56:48;24.80;70.50
29849;DHT22;16728;50.832;5.590;2022-09-02T11:03:28;24.90;69.90
29849;DHT22;16728;50.832;5.590;2022-09-02T11:06:37;25.00;70.60
29849;DHT22;16728;50.832;5.590;2022-09-02T11:10:07;25.10;70.10
29849;DHT22;16728;50.832;5.590;2022-09-02T11:16:22;25.20;69.20
29849;DHT22;16728;50.832;5.590;2022-09-02T11:19:37;25.20;69.00
29849;DHT22;16728;50.832;5.590;2022-09-02T11:26:09;25.20;68.20
29849;DHT22;16728;50.832;5.590;2022-09-02T11:33:09;25.20;68.80
29849;DHT22;16728;50.832;5.590;2022-09-02T11:36:13;25.40;68.50
29849;DHT22;16728;50.832;5.590;2022-09-02T11:50:18;25.50;67.60
29849;DHT22;16728;50.832;5.590;2022-09-02T11:53:27;25.60;67.80
29849;DHT22;16728;50.832;5.590;2022-09-02T11:56:37;25.60;67.10
29849;DHT22;16728;50.832;5.590;2022-09-02T12:06:26;25.40;66.30
29849;DHT22;16728;50.832;5.590;2022-09-02T12:09:47;25.30;67.50
29849;DHT22;16728;50.832;5.590;2022-09-02T12:19:24;25.60;67.70
29849;DHT22;16728;50.832;5.590;2022-09-02T12:22:33;25.60;66.10
29849;DHT22;16728;50.832;5.590;2022-09-02T12:25:47;25.60;66.30
29849;DHT22;16728;50.832;5.590;2022-09-02T12:28:50;25.70;67.50
29849;DHT22;16728;50.832;5.590;2022-09-02T12:31:53;25.80;67.20
29849;DHT22;16728;50.832;5.590;2022-09-02T12:35:07;25.80;66.80
29849;DHT22;16728;50.832;5.590;2022-09-02T12:41:22;26.00;66.90
29849;DHT22;16728;50.832;5.590;2022-09-02T12:44:31;26.10;66.90
29849;DHT22;16728;50.832;5.590;2022-09-02T12:50:56;25.90;66.10
29849;DHT22;16728;50.832;5.590;2022-09-02T12:53:58;25.80;66.30
29849;DHT22;16728;50.832;5.590;2022-09-02T12:57:01;25.80;66.70
29849;DHT22;16728;50.832;5.590;2022-09-02T13:00:04;25.90;67.10
29849;DHT22;16728;50.832;5.590;2022-09-02T13:13:25;26.10;66.20
29849;DHT22;16728;50.832;5.590;2022-09-02T13:30:00;26.20;65.70
29849;DHT22;16728;50.832;5.590;2022-09-02T13:33:10;26.20;66.00
29849;DHT22;16728;50.832;5.590;2022-09-02T13:36:43;26.20;66.00
29849;DHT22;16728;50.832;5.590;2022-09-02T13:39:46;26.30;66.30
29849;DHT22;16728;50.832;5.590;2022-09-02T13:42:53;26.30;66.40
29849;DHT22;16728;50.832;5.590;2022-09-02T13:46:00;26.20;65.60
29849;DHT22;16728;50.832;5.590;2022-09-02T13:49:02;26.20;65.30
29849;DHT22;16728;50.832;5.590;2022-09-02T13:52:15;26.20;65.80
29849;DHT22;16728;50.832;5.590;2022-09-02T13:55:17;26.20;65.60
29849;DHT22;16728;50.832;5.590;2022-09-02T13:58:34;26.20;65.80
29849;DHT22;16728;50.832;5.590;2022-09-02T14:01:37;26.20;65.60
29849;DHT22;16728;50.832;5.590;2022-09-02T14:04:42;26.30;65.00
29849;DHT22;16728;50.832;5.590;2022-09-02T14:07:54;26.20;65.00
29849;DHT22;16728;50.832;5.590;2022-09-02T14:10:57;26.20;65.70
29849;DHT22;16728;50.832;5.590;2022-09-02T14:14:03;26.20;65.60
29849;DHT22;16728;50.832;5.590;2022-09-02T14:17:22;26.30;65.00
29849;DHT22;16728;50.832;5.590;2022-09-02T14:20:25;26.30;65.10
29849;DHT22;16728;50.832;5.590;2022-09-02T14:23:30;26.30;64.90
29849;DHT22;16728;50.832;5.590;2022-09-02T14:26:37;26.20;64.30
29849;DHT22;16728;50.832;5.590;2022-09-02T14:29:43;26.20;65.20
29849;DHT22;16728;50.832;5.590;2022-09-02T14:32:46;26.10;65.40
29849;DHT22;16728;50.832;5.590;2022-09-02T14:36:35;26.10;65.50
29849;DHT22;16728;50.832;5.590;2022-09-02T14:39:29;26.20;65.40
29849;DHT22;16728;50.832;5.590;2022-09-02T14:42:31;26.20;64.70
29849;DHT22;16728;50.832;5.590;2022-09-02T14:45:34;26.30;65.50
29849;DHT22;16728;50.832;5.590;2022-09-02T14:48:39;26.30;64.80
29849;DHT22;16728;50.832;5.590;2022-09-02T14:51:46;26.30;65.20
29849;DHT22;16728;50.832;5.590;2022-09-02T14:54:51;26.20;65.10
29849;DHT22;16728;50.832;5.590;2022-09-02T14:58:00;26.20;64.80
29849;DHT22;16728;50.832;5.590;2022-09-02T15:01:03;26.30;65.00
29849;DHT22;16728;50.832;5.590;2022-09-02T15:04:09;26.30;64.50
29849;DHT22;16728;50.832;5.590;2022-09-02T15:07:15;26.20;64.40
29849;DHT22;16728;50.832;5.590;2022-09-02T15:10:17;26.20;64.70
29849;DHT22;16728;50.832;5.590;2022-09-02T15:13:32;26.20;64.60
29849;DHT22;16728;50.832;5.590;2022-09-02T15:16:34;26.20;64.90
29849;DHT22;16728;50.832;5.590;2022-09-02T15:19:36;26.20;64.70
29849;DHT22;16728;50.832;5.590;2022-09-02T15:22:38;26.20;64.40
29849;DHT22;16728;50.832;5.590;2022-09-02T15:25:40;26.20;64.30
29849;DHT22;16728;50.832;5.590;2022-09-02T15:28:42;26.20;64.10
29849;DHT22;16728;50.832;5.590;2022-09-02T15:31:45;26.20;64.70
29849;DHT22;16728;50.832;5.590;2022-09-02T15:34:47;26.20;64.70
29849;DHT22;16728;50.832;5.590;2022-09-02T15:37:50;26.20;64.40
29849;DHT22;16728;50.832;5.590;2022-09-02T15:40:52;26.20;64.00
29849;DHT22;16728;50.832;5.590;2022-09-02T15:43:54;26.20;64.20
29849;DHT22;16728;50.832;5.590;2022-09-02T15:54:28;26.10;65.00
29849;DHT22;16728;50.832;5.590;2022-09-02T15:57:35;26.10;65.10
29849;DHT22;16728;50.832;5.590;2022-09-02T16:00:37;26.10;65.30
29849;DHT22;16728;50.832;5.590;2022-09-02T16:03:40;26.00;65.40
29849;DHT22;16728;50.832;5.590;2022-09-02T16:06:46;26.00;65.30
29849;DHT22;16728;50.832;5.590;2022-09-02T16:09:48;26.00;65.30
29849;DHT22;16728;50.832;5.590;2022-09-02T16:12:54;26.00;65.30
29849;DHT22;16728;50.832;5.590;2022-09-02T16:16:07;26.00;65.00
29849;DHT22;16728;50.832;5.590;2022-09-02T16:19:12;26.00;64.80
29849;DHT22;16728;50.832;5.590;2022-09-02T16:22:14;26.10;64.90
29849;DHT22;16728;50.832;5.590;2022-09-02T16:25:16;26.00;64.10
29849;DHT22;16728;50.832;5.590;2022-09-02T16:28:18;26.00;64.20
29849;DHT22;16728;50.832;5.590;2022-09-02T16:31:20;26.00;64.20
29849;DHT22;16728;50.832;5.590;2022-09-02T16:34:23;25.90;64.40
29849;DHT22;16728;50.832;5.590;2022-09-02T16:37:24;25.90;64.60
29849;DHT22;16728;50.832;5.590;2022-09-02T16:40:26;25.90;64.70
29849;DHT22;16728;50.832;5.590;2022-09-02T16:43:30;25.90;65.60
29849;DHT22;16728;50.832;5.590;2022-09-02T16:46:34;25.90;65.00
29849;DHT22;16728;50.832;5.590;2022-09-02T16:49:36;25.80;65.00
29849;DHT22;16728;50.832;5.590;2022-09-02T16:52:39;25.90;64.90
29849;DHT22;16728;50.832;5.590;2022-09-02T16:55:43;25.90;64.90
29849;DHT22;16728;50.832;5.590;2022-09-02T16:58:45;25.90;64.90
29849;DHT22;16728;50.832;5.590;2022-09-02T17:01:47;25.80;65.30
29849;DHT22;16728;50.832;5.590;2022-09-02T17:04:49;25.80;65.50
29849;DHT22;16728;50.832;5.590;2022-09-02T17:07:53;25.80;64.80
29849;DHT22;16728;50.832;5.590;2022-09-02T17:11:16;25.80;63.80
29849;DHT22;16728;50.832;5.590;2022-09-02T17:14:21;25.70;64.00
29849;DHT22;16728;50.832;5.590;2022-09-02T17:17:23;25.70;64.00
29849;DHT22;16728;50.832;5.590;2022-09-02T17:20:25;25.70;65.10
29849;DHT22;16728;50.832;5.590;2022-09-02T17:23:28;25.60;64.30
29849;DHT22;16728;50.832;5.590;2022-09-02T17:26:33;25.60;64.20
29849;DHT22;16728;50.832;5.590;2022-09-02T17:29:35;25.50;64.20
29849;DHT22;16728;50.832;5.590;2022-09-02T17:32:52;25.50;64.80
29849;DHT22;16728;50.832;5.590;2022-09-02T17:35:59;25.50;64.80
29849;DHT22;16728;50.832;5.590;2022-09-02T17:39:05;25.50;64.70
29849;DHT22;16728;50.832;5.590;2022-09-02T17:42:08;25.40;63.90
29849;DHT22;16728;50.832;5.590;2022-09-02T17:45:10;25.40;64.00
29849;DHT22;16728;50.832;5.590;2022-09-02T17:48:12;25.30;64.00
29849;DHT22;16728;50.832;5.590;2022-09-02T17:51:34;25.30;64.10
29849;DHT22;16728;50.832;5.590;2022-09-02T17:54:37;25.20;64.10
29849;DHT22;16728;50.832;5.590;2022-09-02T17:58:01;25.20;64.10
29849;DHT22;16728;50.832;5.590;2022-09-02T18:01:05;25.10;64.10
29849;DHT22;16728;50.832;5.590;2022-09-02T18:05:02;25.10;64.30
29849;DHT22;16728;50.832;5.590;2022-09-02T18:08:17;25.00;64.40
29849;DHT22;16728;50.832;5.590;2022-09-02T18:11:23;24.90;64.60
29849;DHT22;16728;50.832;5.590;2022-09-02T18:14:39;24.90;64.50
29849;DHT22;16728;50.832;5.590;2022-09-02T18:17:48;24.90;64.60
29849;DHT22;16728;50.832;5.590;2022-09-02T18:20:58;24.80;64.80
29849;DHT22;16728;50.832;5.590;2022-09-02T18:24:13;24.70;64.70
29849;DHT22;16728;50.832;5.590;2022-09-02T18:48:14;24.60;64.10
29849;DHT22;16728;50.832;5.590;2022-09-02T18:51:36;24.50;64.10
29849;DHT22;16728;50.832;5.590;2022-09-02T18:55:11;24.50;64.40
29849;DHT22;16728;50.832;5.590;2022-09-02T19:01:28;24.50;64.20
29849;DHT22;16728;50.832;5.590;2022-09-02T19:04:32;24.50;64.20
29849;DHT22;16728;50.832;5.590;2022-09-02T19:07:35;24.40;64.10
29849;DHT22;16728;50.832;5.590;2022-09-02T19:11:07;24.40;64.40
29849;DHT22;16728;50.832;5.590;2022-09-02T19:17:14;24.30;65.40
29849;DHT22;16728;50.832;5.590;2022-09-02T19:20:17;24.30;64.90
29849;DHT22;16728;50.832;5.590;2022-09-02T19:23:19;24.30;64.90
29849;DHT22;16728;50.832;5.590;2022-09-02T19:26:22;24.20;65.00
29849;DHT22;16728;50.832;5.590;2022-09-02T19:29:41;24.10;65.30
29849;DHT22;16728;50.832;5.590;2022-09-02T19:32:46;24.10;65.40
29849;DHT22;16728;50.832;5.590;2022-09-02T19:35:49;24.00;65.60
29849;DHT22;16728;50.832;5.590;2022-09-02T19:38:51;24.00;65.50
29849;DHT22;16728;50.832;5.590;2022-09-02T19:41:53;23.90;65.50
29849;DHT22;16728;50.832;5.590;2022-09-02T19:44:55;24.00;65.60
29849;DHT22;16728;50.832;5.590;2022-09-02T19:47:57;23.90;66.20
29849;DHT22;16728;50.832;5.590;2022-09-02T19:51:12;23.90;66.30
29849;DHT22;16728;50.832;5.590;2022-09-02T19:54:15;23.90;66.10
29849;DHT22;16728;50.832;5.590;2022-09-02T19:57:18;23.80;66.60
29849;DHT22;16728;50.832;5.590;2022-09-02T20:00:20;23.80;66.90
29849;DHT22;16728;50.832;5.590;2022-09-02T20:03:24;23.70;67.10
29849;DHT22;16728;50.832;5.590;2022-09-02T20:06:26;23.70;67.50
29849;DHT22;16728;50.832;5.590;2022-09-02T20:09:37;23.50;67.40
29849;DHT22;16728;50.832;5.590;2022-09-02T20:12:39;23.40;67.90
29849;DHT22;16728;50.832;5.590;2022-09-02T20:15:41;23.40;68.30
29849;DHT22;16728;50.832;5.590;2022-09-02T20:18:43;23.30;68.30
29849;DHT22;16728;50.832;5.590;2022-09-02T20:21:47;23.20;68.50
29849;DHT22;16728;50.832;5.590;2022-09-02T20:24:49;23.20;68.80
29849;DHT22;16728;50.832;5.590;2022-09-02T20:35:01;23.20;69.00
29849;DHT22;16728;50.832;5.590;2022-09-02T20:41:44;23.10;69.50
29849;DHT22;16728;50.832;5.590;2022-09-02T20:52:23;22.90;70.20
29849;DHT22;16728;50.832;5.590;2022-09-02T20:55:51;22.80;70.40
29849;DHT22;16728;50.832;5.590;2022-09-02T20:59:05;22.70;71.00
29849;DHT22;16728;50.832;5.590;2022-09-02T21:02:13;22.70;71.50
29849;DHT22;16728;50.832;5.590;2022-09-02T21:05:28;22.60;71.80
29849;DHT22;16728;50.832;5.590;2022-09-02T21:08:36;22.60;71.50
29849;DHT22;16728;50.832;5.590;2022-09-02T21:11:45;22.50;71.60
29849;DHT22;16728;50.832;5.590;2022-09-02T21:21:51;22.10;73.70
29849;DHT22;16728;50.832;5.590;2022-09-02T21:28:21;21.90;75.10
29849;DHT22;16728;50.832;5.590;2022-09-02T21:35:03;21.70;74.90
29849;DHT22;16728;50.832;5.590;2022-09-02T21:41:36;21.70;75.20
29849;DHT22;16728;50.832;5.590;2022-09-02T21:48:18;21.50;75.60
29849;DHT22;16728;50.832;5.590;2022-09-02T21:51:31;21.60;75.40
29849;DHT22;16728;50.832;5.590;2022-09-02T22:01:42;21.30;76.00
29849;DHT22;16728;50.832;5.590;2022-09-02T22:11:13;21.40;75.00
29849;DHT22;16728;50.832;5.590;2022-09-02T22:14:28;21.40;75.30
29849;DHT22;16728;50.832;5.590;2022-09-02T22:17:42;21.50;75.20
29849;DHT22;16728;50.832;5.590;2022-09-02T22:20:48;21.50;75.70
29849;DHT22;16728;50.832;5.590;2022-09-02T22:23:52;21.50;75.90
29849;DHT22;16728;50.832;5.590;2022-09-02T22:27:04;21.40;76.00
29849;DHT22;16728;50.832;5.590;2022-09-02T22:30:17;21.40;76.30
29849;DHT22;16728;50.832;5.590;2022-09-02T22:33:22;21.40;76.30
29849;DHT22;16728;50.832;5.590;2022-09-02T22:36:55;21.50;76.30